Time;durP1;ratioP1;P1;durP2;ratioP2;P2;SDS_P1;SDS_P2;PMS_P1;PMS_P2;Temp;Humidity;BMP_temperature;BMP_pressure;BME280_temperature;BME280_humidity;BME280_pressure;Samples;Min_cycle;Max_cycle;Signal;HPM_P1;HPM_P2
2023/01/18 10:35:19;;;;;;;3.88;1.58;;;;;;;;;;4966416;27;1426837;-91
2023/01/18 10:38:11;;;;;;;2.75;1.60;;;;;;;;;;4988449;28;20050;-80
2023/01/18 10:41:00;;;;;;;4.50;1.95;;;;;;;;;;4987598;28;20047;-87
2023/01/18 10:43:45;;;;;;;6.30;1.70;;;;;;;;;;4993412;28;20094;-81
2023/01/18 10:46:31;;;;;;;10.00;2.47;;;;;;;;;;4987818;28;20051;-84
2023/01/18 10:49:34;;;;;;;9.63;1.73;;;;;;;;;;4987443;28;20051;-78
2023/01/18 10:52:28;;;;;;;6.40;2.05;;;;;;;;;;4987717;28;20035;-79
2023/01/18 10:55:16;;;;;;;4.28;2.70;;;;;;;;;;4987085;28;20047;-79
2023/01/18 10:58:01;;;;;;;4.55;2.65;;;;;;;;;;4987717;28;20043;-79
2023/01/18 11:00:53;;;;;;;2.67;1.40;;;;;;;;;;4987687;28;20043;-79
2023/01/18 11:03:45;;;;;;;2.67;1.25;;;;;;;;;;4987565;28;20038;-79
2023/01/18 11:06:49;;;;;;;3.95;1.38;;;;;;;;;;4987282;28;20042;-77
2023/01/18 11:09:40;;;;;;;5.03;2.05;;;;;;;;;;4986061;28;20043;-80
2023/01/18 11:12:32;;;;;;;7.82;2.28;;;;;;;;;;4986723;28;20051;-77
2023/01/18 11:15:18;;;;;;;4.47;2.38;;;;;;;;;;4987537;28;20050;-79
2023/01/18 11:18:07;;;;;;;3.20;1.63;;;;;;;;;;4987677;28;20046;-82
2023/01/18 11:20:54;;;;;;;3.45;1.70;;;;;;;;;;4987469;28;20051;-78
2023/01/18 11:23:40;;;;;;;2.53;0.80;;;;;;;;;;4987377;28;20042;-77
2023/01/18 11:26:28;;;;;;;4.00;1.10;;;;;;;;;;4987425;28;20493;-76
2023/01/18 11:29:14;;;;;;;1.75;1.10;;;;;;;;;;4986743;28;20046;-78
2023/01/18 11:32:03;;;;;;;1.63;0.90;;;;;;;;;;4987732;28;20042;-81
2023/01/18 11:34:55;;;;;;;3.30;1.60;;;;;;;;;;4993551;28;20415;-79
2023/01/18 11:37:44;;;;;;;1.65;1.10;;;;;;;;;;4994347;28;20396;-82
2023/01/18 11:40:31;;;;;;;6.13;2.15;;;;;;;;;;4978918;28;20038;-80
2023/01/18 11:43:21;;;;;;;2.10;1.33;;;;;;;;;;4992719;28;20408;-82
2023/01/18 11:46:41;;;;;;;7.05;1.67;;;;;;;;;;4978177;28;20046;-80
2023/01/18 11:49:41;;;;;;;1.90;0.82;;;;;;;;;;4993408;28;20042;-80
2023/01/18 11:52:42;;;;;;;7.55;3.17;;;;;;;;;;4993514;28;20050;-82
2023/01/18 11:55:30;;;;;;;5.22;2.40;;;;;;;;;;4985070;28;20054;-80
2023/01/18 11:58:25;;;;;;;4.60;1.77;;;;;;;;;;4993703;28;20034;-79
2023/01/18 12:01:36;;;;;;;4.97;1.70;;;;;;;;;;4985549;28;20046;-82
2023/01/18 12:04:43;;;;;;;5.93;2.13;;;;;;;;;;4993554;28;20038;-82
2023/01/18 12:07:37;;;;;;;4.32;2.35;;;;;;;;;;4992785;28;20487;-83
2023/01/18 12:10:26;;;;;;;9.60;3.28;;;;;;;;;;4993064;28;20046;-82
2023/01/18 12:13:17;;;;;;;8.43;3.90;;;;;;;;;;4992970;28;20046;-82
2023/01/18 12:16:27;;;;;;;8.75;3.47;;;;;;;;;;4993049;28;20484;-84
2023/01/18 12:19:31;;;;;;;3.63;2.15;;;;;;;;;;4971145;28;20046;-85
2023/01/18 12:22:31;;;;;;;5.80;2.75;;;;;;;;;;4992960;28;20396;-80
2023/01/18 12:25:25;;;;;;;4.40;2.45;;;;;;;;;;4992852;28;20050;-84
2023/01/18 12:28:19;;;;;;;4.40;2.88;;;;;;;;;;4993245;28;20054;-82
2023/01/18 12:31:39;;;;;;;4.55;2.70;;;;;;;;;;4984190;28;20038;-83
2023/01/18 12:34:40;;;;;;;9.40;5.00;;;;;;;;;;4980850;28;20046;-85
2023/01/18 12:37:51;;;;;;;6.93;3.50;;;;;;;;;;4977792;28;20050;-82
2023/01/18 12:40:42;;;;;;;10.93;5.47;;;;;;;;;;4992353;28;20034;-81
2023/01/18 12:43:44;;;;;;;12.07;5.95;;;;;;;;;;4992181;28;20349;-81
2023/01/18 12:46:58;;;;;;;6.95;3.50;;;;;;;;;;4983352;28;20043;-84
2023/01/18 12:49:48;;;;;;;7.25;3.97;;;;;;;;;;4986711;28;20051;-84
2023/01/18 12:52:42;;;;;;;7.53;4.43;;;;;;;;;;4992447;28;20043;-84
2023/01/18 12:55:30;;;;;;;9.85;4.20;;;;;;;;;;4992080;28;20046;-84
2023/01/18 12:58:25;;;;;;;4.10;1.95;;;;;;;;;;4992629;28;20035;-81
2023/01/18 13:01:19;;;;;;;5.40;3.25;;;;;;;;;;4992334;28;20046;-84
2023/01/18 13:04:20;;;;;;;1.45;0.80;;;;;;;;;;4977865;28;20050;-81
2023/01/18 13:07:11;;;;;;;4.50;1.52;;;;;;;;;;4992552;28;20054;-83
2023/01/18 13:09:57;;;;;;;3.00;0.70;;;;;;;;;;4977716;28;20393;-83
2023/01/18 13:12:43;;;;;;;4.22;2.25;;;;;;;;;;4992624;28;20046;-82
2023/01/18 13:15:55;;;;;;;5.13;2.42;;;;;;;;;;4992158;28;20500;-80
2023/01/18 13:18:57;;;;;;;2.65;1.60;;;;;;;;;;4977386;28;20050;-81
2023/01/18 13:21:52;;;;;;;3.75;2.00;;;;;;;;;;4992197;28;20498;-81
2023/01/18 13:24:49;;;;;;;5.82;2.00;;;;;;;;;;4977138;28;20043;-84
2023/01/18 13:27:36;;;;;;;9.50;4.90;;;;;;;;;;4984168;28;20043;-84
2023/01/18 13:30:23;;;;;;;5.10;2.65;;;;;;;;;;4992012;28;20050;-84
2023/01/18 13:33:15;;;;;;;6.15;2.42;;;;;;;;;;4992164;28;20042;-80
2023/01/18 13:36:10;;;;;;;4.97;3.03;;;;;;;;;;4991918;28;20046;-84
2023/01/18 13:39:02;;;;;;;6.63;2.00;;;;;;;;;;4991574;28;20046;-82
2023/01/18 13:42:20;;;;;;;3.97;2.38;;;;;;;;;;4991816;28;20042;-83
2023/01/18 13:45:18;;;;;;;2.08;1.60;;;;;;;;;;4991892;28;20047;-83
2023/01/18 13:48:25;;;;;;;5.15;2.67;;;;;;;;;;4991408;28;20042;-82
2023/01/18 13:51:37;;;;;;;1.52;1.10;;;;;;;;;;4991754;28;20038;-79
2023/01/18 13:54:22;;;;;;;5.13;2.20;;;;;;;;;;4991662;28;20042;-83
2023/01/18 13:57:10;;;;;;;3.00;1.80;;;;;;;;;;4992002;28;20042;-79
2023/01/18 13:59:57;;;;;;;2.85;1.73;;;;;;;;;;4975485;28;20044;-79
2023/01/18 14:02:42;;;;;;;5.60;2.20;;;;;;;;;;4972427;28;20046;-79
2023/01/18 14:05:36;;;;;;;4.68;1.48;;;;;;;;;;4963873;28;20046;-82
2023/01/18 14:08:26;;;;;;;3.25;2.00;;;;;;;;;;4972135;28;20392;-79
2023/01/18 14:11:22;;;;;;;2.22;1.48;;;;;;;;;;4972215;28;20043;-79
2023/01/18 14:14:31;;;;;;;5.43;2.70;;;;;;;;;;4971773;28;20038;-80
2023/01/18 14:17:17;;;;;;;4.07;1.58;;;;;;;;;;4971811;28;20039;-83
2023/01/18 14:20:30;;;;;;;4.28;1.42;;;;;;;;;;4949808;28;20043;-81
2023/01/18 14:23:43;;;;;;;4.05;2.25;;;;;;;;;;4971247;28;20047;-84
2023/01/18 14:26:31;;;;;;;3.40;2.03;;;;;;;;;;4971861;28;20050;-84
2023/01/18 14:29:23;;;;;;;3.80;2.25;;;;;;;;;;4972021;28;20046;-81
2023/01/18 14:32:17;;;;;;;2.63;1.50;;;;;;;;;;4971695;28;20401;-81
2023/01/18 14:35:20;;;;;;;16.27;6.53;;;;;;;;;;4950247;28;20055;-84
2023/01/18 14:38:14;;;;;;;2.67;1.75;;;;;;;;;;4951632;29;20048;-82
2023/01/18 14:41:07;;;;;;;2.63;1.73;;;;;;;;;;4943375;29;20425;-80
2023/01/18 14:43:52;;;;;;;3.35;1.52;;;;;;;;;;4952749;29;20051;-85
2023/01/18 14:46:37;;;;;;;7.57;3.88;;;;;;;;;;4952520;29;20047;-81
2023/01/18 14:49:29;;;;;;;2.45;1.52;;;;;;;;;;4951932;29;20047;-80
2023/01/18 14:52:17;;;;;;;6.28;2.33;;;;;;;;;;4952589;29;20043;-84
2023/01/18 14:55:03;;;;;;;4.97;2.90;;;;;;;;;;4951942;29;20043;-84
2023/01/18 14:57:59;;;;;;;4.35;2.60;;;;;;;;;;4952198;29;20051;-84
2023/01/18 15:00:49;;;;;;;7.18;3.70;;;;;;;;;;4952112;29;20040;-84
2023/01/18 15:03:35;;;;;;;32.08;19.83;;;;;;;;;;4950922;29;20051;-81
2023/01/18 15:06:29;;;;;;;31.92;19.55;;;;;;;;;;4950917;29;20051;-85
2023/01/18 15:09:17;;;;;;;13.90;8.85;;;;;;;;;;4951610;28;20051;-81
2023/01/18 15:12:09;;;;;;;10.38;6.75;;;;;;;;;;4955667;29;20469;-81
2023/01/18 15:15:02;;;;;;;9.23;5.57;;;;;;;;;;4953818;29;20150;-84
2023/01/18 15:17:48;;;;;;;13.90;6.75;;;;;;;;;;4955315;29;20055;-80
2023/01/18 15:20:33;;;;;;;19.77;8.70;;;;;;;;;;4954794;29;20048;-80
2023/01/18 15:23:19;;;;;;;25.45;12.73;;;;;;;;;;4960576;28;20051;-85
2023/01/18 15:26:05;;;;;;;16.20;9.15;;;;;;;;;;4955262;29;20051;-81
2023/01/18 15:28:50;;;;;;;17.77;6.70;;;;;;;;;;4955007;29;20043;-84
2023/01/18 15:31:48;;;;;;;9.00;5.28;;;;;;;;;;4955169;29;20055;-84
2023/01/18 15:34:36;;;;;;;194.63;57.65;;;;;;;;;;4965260;28;20054;-81
2023/01/18 15:37:32;;;;;;;26.20;13.63;;;;;;;;;;4974266;28;20070;-84
2023/01/18 15:40:17;;;;;;;51.05;24.92;;;;;;;;;;4974257;28;20046;-84
2023/01/18 15:43:08;;;;;;;21.17;12.60;;;;;;;;;;4960087;28;20043;-81
2023/01/18 15:45:55;;;;;;;9.52;6.18;;;;;;;;;;4974164;28;20055;-81
2023/01/18 15:48:54;;;;;;;15.80;9.15;;;;;;;;;;4974243;28;20047;-81
2023/01/18 15:51:56;;;;;;;5.28;3.80;;;;;;;;;;4973544;28;20051;-85
2023/01/18 15:54:41;;;;;;;12.57;7.57;;;;;;;;;;4974156;28;20043;-84
2023/01/18 15:57:26;;;;;;;11.98;8.95;;;;;;;;;;4973938;28;20046;-81
2023/01/18 16:00:36;;;;;;;11.27;6.45;;;;;;;;;;4974312;28;20046;-84
2023/01/18 16:03:28;;;;;;;9.73;5.72;;;;;;;;;;4974151;28;20381;-80
2023/01/18 16:06:35;;;;;;;19.70;10.07;;;;;;;;;;4974005;28;20047;-79
2023/01/18 16:09:21;;;;;;;16.70;9.60;;;;;;;;;;4974122;28;20043;-80
2023/01/18 16:12:07;;;;;;;7.18;4.38;;;;;;;;;;4974161;28;20046;-84
2023/01/18 16:14:58;;;;;;;15.52;6.95;;;;;;;;;;4973827;28;20043;-81
2023/01/18 16:17:43;;;;;;;37.30;18.52;;;;;;;;;;4965583;28;20047;-84
2023/01/18 16:20:31;;;;;;;19.85;10.85;;;;;;;;;;4973542;28;20047;-81
2023/01/18 16:23:18;;;;;;;233.40;83.38;;;;;;;;;;4973919;28;20043;-82
2023/01/18 16:26:26;;;;;;;219.45;124.43;;;;;;;;;;4973577;28;20038;-83
2023/01/18 16:29:12;;;;;;;20.17;14.98;;;;;;;;;;4973550;28;20378;-82
2023/01/18 16:32:23;;;;;;;96.68;54.25;;;;;;;;;;4958807;28;20046;-81
2023/01/18 16:35:15;;;;;;;26.58;17.67;;;;;;;;;;4960495;28;20407;-80
2023/01/18 16:38:00;;;;;;;29.45;18.83;;;;;;;;;;4973166;28;20042;-80
2023/01/18 16:40:49;;;;;;;42.10;26.42;;;;;;;;;;4959195;28;20047;-80
2023/01/18 16:43:34;;;;;;;27.73;13.77;;;;;;;;;;4972950;28;20043;-81
2023/01/18 16:46:19;;;;;;;20.20;11.52;;;;;;;;;;4972691;28;20058;-80
2023/01/18 16:49:10;;;;;;;21.13;13.38;;;;;;;;;;4973226;28;20051;-79
2023/01/18 16:51:55;;;;;;;32.83;20.15;;;;;;;;;;4969479;28;20047;-80
2023/01/18 16:54:44;;;;;;;51.45;29.83;;;;;;;;;;4972857;28;20426;-80
2023/01/18 16:57:30;;;;;;;31.70;18.08;;;;;;;;;;4965058;28;20042;-80
2023/01/18 17:00:27;;;;;;;27.00;14.50;;;;;;;;;;4964918;28;20039;-80
2023/01/18 17:03:11;;;;;;;31.40;16.80;;;;;;;;;;4973141;28;20038;-79
2023/01/18 17:05:57;;;;;;;19.65;12.18;;;;;;;;;;4973626;28;20484;-81
2023/01/18 17:08:43;;;;;;;63.20;33.70;;;;;;;;;;4958468;28;20401;-82
2023/01/18 17:11:28;;;;;;;24.65;16.40;;;;;;;;;;4972851;28;20039;-80
2023/01/18 17:14:14;;;;;;;105.05;53.03;;;;;;;;;;4972731;28;20047;-79
2023/01/18 17:16:59;;;;;;;11.70;7.60;;;;;;;;;;4968988;28;20034;-80
2023/01/18 17:19:44;;;;;;;11.40;6.15;;;;;;;;;;4972837;28;20038;-81
2023/01/18 17:22:29;;;;;;;12.98;7.78;;;;;;;;;;4972458;28;20412;-80
2023/01/18 17:25:14;;;;;;;23.65;10.82;;;;;;;;;;4950682;28;20047;-81
2023/01/18 17:28:00;;;;;;;22.95;9.52;;;;;;;;;;4972595;28;20047;-80
2023/01/18 17:30:47;;;;;;;21.65;10.20;;;;;;;;;;4972520;28;20492;-80
2023/01/18 17:33:37;;;;;;;13.07;8.27;;;;;;;;;;4972004;28;20046;-80
2023/01/18 17:36:22;;;;;;;23.73;13.15;;;;;;;;;;4964326;28;20047;-81
2023/01/18 17:39:08;;;;;;;21.77;12.70;;;;;;;;;;4972720;28;20043;-81
2023/01/18 17:41:53;;;;;;;34.38;17.33;;;;;;;;;;4957966;28;20046;-82
2023/01/18 17:44:38;;;;;;;13.88;8.48;;;;;;;;;;4964562;28;20477;-81
2023/01/18 17:47:25;;;;;;;19.85;11.07;;;;;;;;;;4957903;28;20050;-80
2023/01/18 17:50:16;;;;;;;10.75;5.38;;;;;;;;;;4964145;28;20043;-81
2023/01/18 17:53:09;;;;;;;30.80;16.00;;;;;;;;;;4964172;28;20052;-80
2023/01/18 17:56:09;;;;;;;94.47;47.13;;;;;;;;;;4939254;29;20047;-81
2023/01/18 17:58:54;;;;;;;11.73;6.65;;;;;;;;;;4958394;28;20039;-80
2023/01/18 18:01:39;;;;;;;12.07;7.45;;;;;;;;;;4938647;29;20051;-81
2023/01/18 18:04:24;;;;;;;12.57;7.30;;;;;;;;;;4951896;29;20047;-81
2023/01/18 18:07:10;;;;;;;13.88;7.70;;;;;;;;;;4952866;29;20047;-81
2023/01/18 18:09:59;;;;;;;9.35;6.97;;;;;;;;;;4951777;29;20493;-81
2023/01/18 18:12:44;;;;;;;12.95;8.25;;;;;;;;;;4952971;29;20389;-81
2023/01/18 18:15:28;;;;;;;15.18;8.88;;;;;;;;;;4952366;29;20051;-81
2023/01/18 18:18:15;;;;;;;20.33;12.07;;;;;;;;;;4952644;29;20048;-81
2023/01/18 18:21:05;;;;;;;24.55;15.23;;;;;;;;;;4951837;29;20055;-83
2023/01/18 18:23:50;;;;;;;23.55;13.90;;;;;;;;;;4952535;29;20495;-82
2023/01/18 18:26:36;;;;;;;24.50;13.02;;;;;;;;;;4952423;29;20055;-82
2023/01/18 18:29:21;;;;;;;23.75;11.55;;;;;;;;;;4938381;29;20055;-82
2023/01/18 18:32:08;;;;;;;17.83;11.20;;;;;;;;;;4957723;29;20048;-83
2023/01/18 18:34:53;;;;;;;32.00;16.83;;;;;;;;;;4953030;28;20047;-83
2023/01/18 18:37:38;;;;;;;31.25;19.13;;;;;;;;;;4952349;29;20047;-83
2023/01/18 18:40:24;;;;;;;40.95;23.10;;;;;;;;;;4957605;29;20055;-83
2023/01/18 18:43:08;;;;;;;20.45;13.23;;;;;;;;;;4957928;29;20043;-83
2023/01/18 18:45:54;;;;;;;17.33;11.32;;;;;;;;;;4955351;29;20047;-83
2023/01/18 18:48:39;;;;;;;51.85;25.83;;;;;;;;;;4955646;29;20039;-83
2023/01/18 18:51:27;;;;;;;22.65;13.35;;;;;;;;;;4955835;29;20047;-86
2023/01/18 18:54:13;;;;;;;17.27;10.90;;;;;;;;;;4961269;28;20489;-84
2023/01/18 18:56:59;;;;;;;87.35;42.67;;;;;;;;;;4947870;28;20043;-81
2023/01/18 18:59:43;;;;;;;49.03;25.67;;;;;;;;;;4954701;29;20055;-83
2023/01/18 19:02:29;;;;;;;46.53;24.25;;;;;;;;;;4954625;29;20051;-82
2023/01/18 19:05:23;;;;;;;49.50;27.17;;;;;;;;;;4960979;28;20051;-82
2023/01/18 19:08:09;;;;;;;90.10;54.22;;;;;;;;;;5003630;28;20047;-82
2023/01/18 19:10:56;;;;;;;87.18;47.70;;;;;;;;;;4940909;29;20047;-83
2023/01/18 19:13:42;;;;;;;140.32;65.97;;;;;;;;;;4960514;28;20043;-83
2023/01/18 19:16:27;;;;;;;37.03;21.20;;;;;;;;;;4960451;28;20404;-84
2023/01/18 19:19:12;;;;;;;38.63;23.73;;;;;;;;;;4960637;28;20043;-81
2023/01/18 19:21:58;;;;;;;41.65;21.58;;;;;;;;;;4954951;29;20397;-84
2023/01/18 19:24:43;;;;;;;31.50;16.25;;;;;;;;;;4947484;28;20043;-83
2023/01/18 19:27:29;;;;;;;27.90;14.75;;;;;;;;;;4940738;29;20044;-81
2023/01/18 19:30:17;;;;;;;82.97;46.05;;;;;;;;;;4941277;29;20385;-83
2023/01/18 19:33:28;;;;;;;91.07;46.35;;;;;;;;;;4955049;29;20048;-84
2023/01/18 19:36:20;;;;;;;62.42;34.67;;;;;;;;;;5028519;28;20439;-86
2023/01/18 19:39:05;;;;;;;31.23;17.65;;;;;;;;;;5016502;28;20065;-83
2023/01/18 19:41:51;;;;;;;50.72;29.02;;;;;;;;;;5016301;28;20042;-83
2023/01/18 19:44:37;;;;;;;32.20;17.55;;;;;;;;;;5016007;28;20050;-86
2023/01/18 19:47:22;;;;;;;53.90;27.30;;;;;;;;;;5022099;28;20487;-86
2023/01/18 19:50:08;;;;;;;46.67;27.60;;;;;;;;;;5035803;28;20042;-86
2023/01/18 19:52:53;;;;;;;97.93;41.30;;;;;;;;;;5029106;28;20038;-86
2023/01/18 19:55:39;;;;;;;50.63;27.27;;;;;;;;;;5014499;28;20049;-84
2023/01/18 19:58:25;;;;;;;21.70;9.57;;;;;;;;;;5016422;28;20057;-84
2023/01/18 20:01:13;;;;;;;71.75;37.25;;;;;;;;;;5016166;28;20038;-82
2023/01/18 20:03:59;;;;;;;86.78;42.95;;;;;;;;;;5021784;28;20038;-85
2023/01/18 20:06:49;;;;;;;51.88;29.17;;;;;;;;;;5034984;28;20492;-85
2023/01/18 20:09:38;;;;;;;61.28;29.50;;;;;;;;;;5021622;28;20038;-82
2023/01/18 20:12:30;;;;;;;66.38;30.50;;;;;;;;;;5016186;28;20038;-83
2023/01/18 20:15:21;;;;;;;89.78;38.35;;;;;;;;;;5034255;28;20415;-84
2023/01/18 20:18:07;;;;;;;90.35;39.00;;;;;;;;;;5015594;28;20046;-85
2023/01/18 20:20:53;;;;;;;81.35;39.20;;;;;;;;;;5015948;28;20046;-83
2023/01/18 20:23:41;;;;;;;70.10;33.60;;;;;;;;;;5035321;28;20038;-84
2023/01/18 20:26:32;;;;;;;39.90;17.90;;;;;;;;;;5021805;28;20045;-82
2023/01/18 20:29:23;;;;;;;102.93;39.90;;;;;;;;;;5035068;28;20038;-82
2023/01/18 20:32:13;;;;;;;27.77;13.23;;;;;;;;;;5015801;28;20042;-85
2023/01/18 20:34:59;;;;;;;73.18;26.92;;;;;;;;;;4977087;28;20051;-84
2023/01/18 20:37:46;;;;;;;35.38;14.70;;;;;;;;;;4954236;29;20114;-84
2023/01/18 20:40:34;;;;;;;38.05;17.80;;;;;;;;;;4959673;28;20043;-84
2023/01/18 20:43:24;;;;;;;128.20;48.92;;;;;;;;;;4959484;28;20047;-87
2023/01/18 20:46:16;;;;;;;31.45;14.50;;;;;;;;;;4954556;29;20744;-85
2023/01/18 20:49:09;;;;;;;33.92;13.50;;;;;;;;;;4947250;28;20047;-81
2023/01/18 20:51:55;;;;;;;39.42;15.18;;;;;;;;;;4939703;29;20051;-82
2023/01/18 20:54:41;;;;;;;48.95;21.17;;;;;;;;;;4954081;29;20055;-80
2023/01/18 20:57:30;;;;;;;57.75;29.92;;;;;;;;;;4953270;29;20401;-82
2023/01/18 21:00:17;;;;;;;85.63;34.30;;;;;;;;;;4958475;28;20047;-82
2023/01/18 21:03:02;;;;;;;75.88;34.22;;;;;;;;;;4939845;29;20043;-83
2023/01/18 21:05:52;;;;;;;75.85;35.80;;;;;;;;;;4953691;29;20039;-84
2023/01/18 21:08:39;;;;;;;87.15;36.38;;;;;;;;;;4944993;28;20493;-82
2023/01/18 21:11:26;;;;;;;91.25;41.28;;;;;;;;;;4946277;28;20481;-82
2023/01/18 21:14:13;;;;;;;169.68;68.70;;;;;;;;;;4939490;29;20039;-84
2023/01/18 21:16:58;;;;;;;208.30;73.75;;;;;;;;;;4953189;29;20047;-82
2023/01/18 21:19:46;;;;;;;72.15;29.52;;;;;;;;;;4958838;28;20047;-84
2023/01/18 21:22:31;;;;;;;234.27;108.32;;;;;;;;;;4953028;29;20059;-83
2023/01/18 21:25:17;;;;;;;156.18;52.80;;;;;;;;;;4953316;29;20039;-82
2023/01/18 21:28:03;;;;;;;129.60;46.35;;;;;;;;;;4953263;29;20493;-81
2023/01/18 21:30:53;;;;;;;101.32;40.30;;;;;;;;;;4939091;29;20052;-83
2023/01/18 21:33:39;;;;;;;119.30;43.58;;;;;;;;;;4952120;28;20039;-82
2023/01/18 21:36:24;;;;;;;70.63;28.83;;;;;;;;;;4952932;29;20051;-84
2023/01/18 21:39:17;;;;;;;82.10;28.75;;;;;;;;;;4958970;28;20044;-81
2023/01/18 21:48:09;;;;;;;103.05;39.25;;;;;;;;;;4958567;28;20051;-86
2023/01/18 21:54:14;;;;;;;172.13;73.75;;;;;;;;;;4958709;28;20047;-85
2023/01/18 21:57:07;;;;;;;147.82;62.33;;;;;;;;;;4958331;28;20051;-85
2023/01/18 21:59:58;;;;;;;154.48;66.80;;;;;;;;;;4959004;28;20039;-85
2023/01/18 22:02:56;;;;;;;140.88;52.55;;;;;;;;;;4945938;28;20039;-85
2023/01/18 22:05:54;;;;;;;151.90;61.72;;;;;;;;;;4944871;28;20465;-83
2023/01/18 22:08:46;;;;;;;186.90;87.30;;;;;;;;;;4944842;28;20047;-84
2023/01/18 22:12:43;;;;;;;124.63;53.45;;;;;;;;;;4941411;29;20043;-84
2023/01/18 22:16:17;;;;;;;;;;;;;;;;;;;;;
2023/01/18 22:20:24;;;;;;;131.20;52.03;;;;;;;;;;4952929;29;20416;-87
2023/01/18 22:34:34;;;;;;;138.40;56.78;;;;;;;;;;4944614;28;20048;-83
2023/01/18 22:37:19;;;;;;;98.97;40.97;;;;;;;;;;4933371;29;20055;-83
2023/01/18 22:40:06;;;;;;;180.55;89.40;;;;;;;;;;4932983;29;20044;-83
2023/01/18 22:42:51;;;;;;;67.18;31.70;;;;;;;;;;4938002;29;20060;-86
2023/01/18 22:45:36;;;;;;;54.15;17.13;;;;;;;;;;4933200;29;20044;-86
2023/01/18 22:48:38;;;;;;;40.35;11.95;;;;;;;;;;4933704;29;20047;-86
2023/01/18 22:51:26;;;;;;;53.15;24.20;;;;;;;;;;4940995;29;20052;-85
2023/01/18 22:54:12;;;;;;;53.83;24.30;;;;;;;;;;4939281;29;20115;-86
2023/01/18 22:56:57;;;;;;;47.42;17.35;;;;;;;;;;4945672;29;20044;-84
2023/01/18 22:59:43;;;;;;;45.58;19.38;;;;;;;;;;4945538;29;20043;-83
2023/01/18 23:02:31;;;;;;;80.43;34.88;;;;;;;;;;4933248;29;20421;-85
2023/01/18 23:05:17;;;;;;;62.03;24.65;;;;;;;;;;4939000;29;20048;-85
2023/01/18 23:08:04;;;;;;;53.75;20.27;;;;;;;;;;4939196;29;20040;-82
2023/01/18 23:10:56;;;;;;;51.38;20.30;;;;;;;;;;4952021;29;20502;-84
2023/01/18 23:17:37;;;;;;;94.90;41.92;;;;;;;;;;4932210;29;20052;-85
2023/01/18 23:19:54;;;;;;;55.53;24.00;;;;;;;;;;4933676;29;20048;-84
2023/01/18 23:22:40;;;;;;;231.20;130.30;;;;;;;;;;4933304;29;20393;-86
2023/01/18 23:25:25;;;;;;;53.78;21.00;;;;;;;;;;4943983;29;20379;-87
2023/01/18 23:28:26;;;;;;;69.00;30.73;;;;;;;;;;4936872;29;20047;-86
2023/01/18 23:31:14;;;;;;;50.50;22.63;;;;;;;;;;4925156;29;20048;-86
2023/01/18 23:34:00;;;;;;;21.23;9.95;;;;;;;;;;4937138;28;20044;-83
2023/01/18 23:36:45;;;;;;;30.48;15.85;;;;;;;;;;4954690;29;20485;-85
2023/01/18 23:54:49;;;;;;;36.17;16.63;;;;;;;;;;4960375;28;20047;-84
2023/01/18 23:57:34;;;;;;;21.42;9.93;;;;;;;;;;4952876;28;20043;-80
